sensor_id;sensor_type;location;lat;lon;timestamp;temperature;humidity
14170;DHT22;63889;50.596;8.690;2024-02-21T00:01:51;9.50;99.90
14170;DHT22;63889;50.596;8.690;2024-02-21T00:04:16;9.60;99.90
14170;DHT22;63889;50.596;8.690;2024-02-21T00:06:42;9.60;99.90
14170;DHT22;63889;50.596;8.690;2024-02-21T00:09:07;9.60;99.90
14170;DHT22;63889;50.596;8.690;2024-02-21T00:11:35;9.70;99.90
14170;DHT22;63889;50.596;8.690;2024-02-21T00:14:00;9.70;99.90
14170;DHT22;63889;50.596;8.690;2024-02-21T00:16:26;9.50;99.90
14170;DHT22;63889;50.596;8.690;2024-02-21T00:18:51;9.50;99.90
14170;DHT22;63889;50.596;8.690;2024-02-21T00:21:17;9.60;99.90
14170;DHT22;63889;50.596;8.690;2024-02-21T00:23:44;9.60;99.90
14170;DHT22;63889;50.596;8.690;2024-02-21T00:26:14;9.70;99.90
14170;DHT22;63889;50.596;8.690;2024-02-21T00:28:39;9.70;99.90
14170;DHT22;63889;50.596;8.690;2024-02-21T00:31:05;9.80;99.90
14170;DHT22;63889;50.596;8.690;2024-02-21T00:33:30;9.80;99.90
14170;DHT22;63889;50.596;8.690;2024-02-21T00:35:56;9.80;99.90
14170;DHT22;63889;50.596;8.690;2024-02-21T00:38:21;9.80;99.90
14170;DHT22;63889;50.596;8.690;2024-02-21T00:40:47;9.90;99.90
14170;DHT22;63889;50.596;8.690;2024-02-21T00:43:13;9.90;99.90
14170;DHT22;63889;50.596;8.690;2024-02-21T00:45:38;9.90;99.90
14170;DHT22;63889;50.596;8.690;2024-02-21T00:48:04;9.80;99.90
14170;DHT22;63889;50.596;8.690;2024-02-21T00:50:30;9.90;99.90
14170;DHT22;63889;50.596;8.690;2024-02-21T00:52:55;9.80;99.90
14170;DHT22;63889;50.596;8.690;2024-02-21T00:55:21;9.80;99.90
14170;DHT22;63889;50.596;8.690;2024-02-21T00:57:46;9.80;99.90
14170;DHT22;63889;50.596;8.690;2024-02-21T01:00:13;9.70;99.90
14170;DHT22;63889;50.596;8.690;2024-02-21T01:02:39;9.60;99.90
14170;DHT22;63889;50.596;8.690;2024-02-21T01:05:04;9.60;99.90
14170;DHT22;63889;50.596;8.690;2024-02-21T01:07:30;9.40;99.90
14170;DHT22;63889;50.596;8.690;2024-02-21T01:09:56;9.20;99.90
14170;DHT22;63889;50.596;8.690;2024-02-21T01:12:21;9.20;99.90
14170;DHT22;63889;50.596;8.690;2024-02-21T01:14:47;9.20;99.90
14170;DHT22;63889;50.596;8.690;2024-02-21T01:17:13;9.20;99.90
14170;DHT22;63889;50.596;8.690;2024-02-21T01:19:38;9.20;99.90
14170;DHT22;63889;50.596;8.690;2024-02-21T01:22:04;9.20;99.90
14170;DHT22;63889;50.596;8.690;2024-02-21T01:24:30;9.20;99.90
14170;DHT22;63889;50.596;8.690;2024-02-21T01:26:55;9.20;99.90
14170;DHT22;63889;50.596;8.690;2024-02-21T01:29:21;9.30;99.90
14170;DHT22;63889;50.596;8.690;2024-02-21T01:31:46;9.30;99.90
14170;DHT22;63889;50.596;8.690;2024-02-21T01:34:13;9.20;99.90
14170;DHT22;63889;50.596;8.690;2024-02-21T01:36:38;9.20;99.90
14170;DHT22;63889;50.596;8.690;2024-02-21T01:39:04;9.30;99.90
14170;DHT22;63889;50.596;8.690;2024-02-21T01:41:30;9.20;99.90
14170;DHT22;63889;50.596;8.690;2024-02-21T01:43:56;9.20;99.90
14170;DHT22;63889;50.596;8.690;2024-02-21T01:46:23;9.20;99.90
14170;DHT22;63889;50.596;8.690;2024-02-21T01:48:53;9.20;99.90
14170;DHT22;63889;50.596;8.690;2024-02-21T01:51:19;9.30;99.90
14170;DHT22;63889;50.596;8.690;2024-02-21T01:53:45;9.20;99.90
14170;DHT22;63889;50.596;8.690;2024-02-21T01:56:12;9.10;99.90
14170;DHT22;63889;50.596;8.690;2024-02-21T01:58:39;9.10;99.90
14170;DHT22;63889;50.596;8.690;2024-02-21T02:01:06;9.20;99.90
14170;DHT22;63889;50.596;8.690;2024-02-21T02:03:32;9.30;99.90
14170;DHT22;63889;50.596;8.690;2024-02-21T02:05:57;9.30;99.90
14170;DHT22;63889;50.596;8.690;2024-02-21T02:08:23;9.30;99.90
14170;DHT22;63889;50.596;8.690;2024-02-21T02:10:49;9.30;99.90
14170;DHT22;63889;50.596;8.690;2024-02-21T02:13:15;9.30;99.90
14170;DHT22;63889;50.596;8.690;2024-02-21T02:15:41;9.40;99.90
14170;DHT22;63889;50.596;8.690;2024-02-21T02:18:07;9.40;99.90
14170;DHT22;63889;50.596;8.690;2024-02-21T02:20:34;9.40;99.90
14170;DHT22;63889;50.596;8.690;2024-02-21T02:22:59;9.40;99.90
14170;DHT22;63889;50.596;8.690;2024-02-21T02:25:27;9.40;99.90
14170;DHT22;63889;50.596;8.690;2024-02-21T02:27:53;9.40;99.90
14170;DHT22;63889;50.596;8.690;2024-02-21T02:30:19;9.50;99.90
14170;DHT22;63889;50.596;8.690;2024-02-21T02:32:45;9.50;99.90
14170;DHT22;63889;50.596;8.690;2024-02-21T02:35:11;9.50;99.90
14170;DHT22;63889;50.596;8.690;2024-02-21T02:37:37;9.50;99.90
14170;DHT22;63889;50.596;8.690;2024-02-21T02:40:05;9.40;99.90
14170;DHT22;63889;50.596;8.690;2024-02-21T02:42:31;9.30;99.90
14170;DHT22;63889;50.596;8.690;2024-02-21T02:44:56;9.30;99.90
14170;DHT22;63889;50.596;8.690;2024-02-21T02:47:22;9.20;99.90
14170;DHT22;63889;50.596;8.690;2024-02-21T02:49:48;9.20;99.90
14170;DHT22;63889;50.596;8.690;2024-02-21T02:52:16;9.20;99.90
14170;DHT22;63889;50.596;8.690;2024-02-21T02:54:42;9.20;99.90
14170;DHT22;63889;50.596;8.690;2024-02-21T02:57:08;9.20;99.90
14170;DHT22;63889;50.596;8.690;2024-02-21T02:59:33;9.20;99.90
14170;DHT22;63889;50.596;8.690;2024-02-21T03:01:59;9.20;99.90
14170;DHT22;63889;50.596;8.690;2024-02-21T03:04:24;9.30;99.90
14170;DHT22;63889;50.596;8.690;2024-02-21T03:06:50;9.30;99.90
14170;DHT22;63889;50.596;8.690;2024-02-21T03:09:16;9.30;99.90
14170;DHT22;63889;50.596;8.690;2024-02-21T03:11:43;9.40;99.90
14170;DHT22;63889;50.596;8.690;2024-02-21T03:14:09;9.50;99.90
14170;DHT22;63889;50.596;8.690;2024-02-21T03:16:35;9.50;99.90
14170;DHT22;63889;50.596;8.690;2024-02-21T03:19:01;9.40;99.90
14170;DHT22;63889;50.596;8.690;2024-02-21T03:21:26;9.40;99.90
14170;DHT22;63889;50.596;8.690;2024-02-21T03:23:52;9.30;99.90
14170;DHT22;63889;50.596;8.690;2024-02-21T03:26:17;9.30;99.90
14170;DHT22;63889;50.596;8.690;2024-02-21T03:28:43;9.30;99.90
14170;DHT22;63889;50.596;8.690;2024-02-21T03:31:11;9.30;99.90
14170;DHT22;63889;50.596;8.690;2024-02-21T03:33:42;9.40;99.90
14170;DHT22;63889;50.596;8.690;2024-02-21T03:36:13;9.40;99.90
14170;DHT22;63889;50.596;8.690;2024-02-21T03:38:39;9.40;99.90
14170;DHT22;63889;50.596;8.690;2024-02-21T03:41:04;9.30;99.90
14170;DHT22;63889;50.596;8.690;2024-02-21T03:43:30;9.30;99.90
14170;DHT22;63889;50.596;8.690;2024-02-21T03:45:55;9.30;99.90
14170;DHT22;63889;50.596;8.690;2024-02-21T03:48:21;9.30;99.90
14170;DHT22;63889;50.596;8.690;2024-02-21T03:50:46;9.20;99.90
14170;DHT22;63889;50.596;8.690;2024-02-21T03:53:12;9.00;99.90
14170;DHT22;63889;50.596;8.690;2024-02-21T03:55:37;8.90;99.90
14170;DHT22;63889;50.596;8.690;2024-02-21T03:58:03;8.90;99.90
14170;DHT22;63889;50.596;8.690;2024-02-21T04:00:28;8.80;99.90
14170;DHT22;63889;50.596;8.690;2024-02-21T04:02:54;8.80;99.90
14170;DHT22;63889;50.596;8.690;2024-02-21T04:05:21;8.90;99.90
14170;DHT22;63889;50.596;8.690;2024-02-21T04:07:46;8.90;99.90
14170;DHT22;63889;50.596;8.690;2024-02-21T04:10:12;8.80;99.90
14170;DHT22;63889;50.596;8.690;2024-02-21T04:12:38;8.90;99.90
14170;DHT22;63889;50.596;8.690;2024-02-21T04:15:04;8.90;99.90
14170;DHT22;63889;50.596;8.690;2024-02-21T04:17:29;8.80;99.90
14170;DHT22;63889;50.596;8.690;2024-02-21T04:20:04;8.80;99.90
14170;DHT22;63889;50.596;8.690;2024-02-21T04:22:31;8.90;99.90
14170;DHT22;63889;50.596;8.690;2024-02-21T04:24:59;8.90;99.90
14170;DHT22;63889;50.596;8.690;2024-02-21T04:27:24;9.00;99.90
14170;DHT22;63889;50.596;8.690;2024-02-21T04:29:50;9.10;99.90
14170;DHT22;63889;50.596;8.690;2024-02-21T04:32:15;9.10;99.90
14170;DHT22;63889;50.596;8.690;2024-02-21T04:34:41;9.20;99.90
14170;DHT22;63889;50.596;8.690;2024-02-21T04:37:07;9.20;99.90
14170;DHT22;63889;50.596;8.690;2024-02-21T04:39:32;9.30;99.90
14170;DHT22;63889;50.596;8.690;2024-02-21T04:41:58;9.40;99.90
14170;DHT22;63889;50.596;8.690;2024-02-21T04:44:23;9.40;99.90
14170;DHT22;63889;50.596;8.690;2024-02-21T04:46:49;9.40;99.90
14170;DHT22;63889;50.596;8.690;2024-02-21T04:49:14;9.40;99.90
14170;DHT22;63889;50.596;8.690;2024-02-21T04:51:41;9.40;99.90
14170;DHT22;63889;50.596;8.690;2024-02-21T04:54:06;9.30;99.90
14170;DHT22;63889;50.596;8.690;2024-02-21T04:56:32;9.40;99.90
14170;DHT22;63889;50.596;8.690;2024-02-21T04:58:57;9.40;99.90
14170;DHT22;63889;50.596;8.690;2024-02-21T05:01:23;9.40;99.90
14170;DHT22;63889;50.596;8.690;2024-02-21T05:03:48;9.40;99.90
14170;DHT22;63889;50.596;8.690;2024-02-21T05:06:14;9.40;99.90
14170;DHT22;63889;50.596;8.690;2024-02-21T05:08:40;9.40;99.90
14170;DHT22;63889;50.596;8.690;2024-02-21T05:11:05;9.40;99.90
14170;DHT22;63889;50.596;8.690;2024-02-21T05:13:31;9.40;99.90
14170;DHT22;63889;50.596;8.690;2024-02-21T05:15:57;9.40;99.90
14170;DHT22;63889;50.596;8.690;2024-02-21T05:18:22;9.40;99.90
14170;DHT22;63889;50.596;8.690;2024-02-21T05:20:48;9.20;99.90
14170;DHT22;63889;50.596;8.690;2024-02-21T05:23:13;9.20;99.90
14170;DHT22;63889;50.596;8.690;2024-02-21T05:25:39;9.30;99.90
14170;DHT22;63889;50.596;8.690;2024-02-21T05:28:04;9.20;99.90
14170;DHT22;63889;50.596;8.690;2024-02-21T05:30:31;9.20;99.90
14170;DHT22;63889;50.596;8.690;2024-02-21T05:32:57;9.20;99.90
14170;DHT22;63889;50.596;8.690;2024-02-21T05:35:29;9.20;99.90
14170;DHT22;63889;50.596;8.690;2024-02-21T05:37:54;9.20;99.90
14170;DHT22;63889;50.596;8.690;2024-02-21T05:40:20;9.20;99.90
14170;DHT22;63889;50.596;8.690;2024-02-21T05:42:45;9.20;99.90
14170;DHT22;63889;50.596;8.690;2024-02-21T05:45:11;9.20;99.90
14170;DHT22;63889;50.596;8.690;2024-02-21T05:47:36;9.20;99.90
14170;DHT22;63889;50.596;8.690;2024-02-21T05:50:02;9.20;99.90
14170;DHT22;63889;50.596;8.690;2024-02-21T05:52:28;9.20;99.90
14170;DHT22;63889;50.596;8.690;2024-02-21T05:54:53;9.20;99.90
14170;DHT22;63889;50.596;8.690;2024-02-21T05:57:19;9.10;99.90
14170;DHT22;63889;50.596;8.690;2024-02-21T05:59:44;9.10;99.90
14170;DHT22;63889;50.596;8.690;2024-02-21T06:02:10;9.20;99.90
14170;DHT22;63889;50.596;8.690;2024-02-21T06:04:35;9.20;99.90
14170;DHT22;63889;50.596;8.690;2024-02-21T06:07:01;9.20;99.90
14170;DHT22;63889;50.596;8.690;2024-02-21T06:09:27;9.20;99.90
14170;DHT22;63889;50.596;8.690;2024-02-21T06:11:53;9.30;99.90
14170;DHT22;63889;50.596;8.690;2024-02-21T06:14:19;9.40;99.90
14170;DHT22;63889;50.596;8.690;2024-02-21T06:16:45;9.40;99.90
14170;DHT22;63889;50.596;8.690;2024-02-21T06:19:11;9.40;99.90
14170;DHT22;63889;50.596;8.690;2024-02-21T06:21:36;9.40;99.90
14170;DHT22;63889;50.596;8.690;2024-02-21T06:24:02;9.40;99.90
14170;DHT22;63889;50.596;8.690;2024-02-21T06:26:28;9.40;99.90
14170;DHT22;63889;50.596;8.690;2024-02-21T06:28:54;9.40;99.90
14170;DHT22;63889;50.596;8.690;2024-02-21T06:31:19;9.30;99.90
14170;DHT22;63889;50.596;8.690;2024-02-21T06:33:45;9.30;99.90
14170;DHT22;63889;50.596;8.690;2024-02-21T06:36:10;9.30;99.90
14170;DHT22;63889;50.596;8.690;2024-02-21T06:38:36;9.40;99.90
14170;DHT22;63889;50.596;8.690;2024-02-21T06:41:01;9.40;99.90
14170;DHT22;63889;50.596;8.690;2024-02-21T06:43:28;9.30;99.90
14170;DHT22;63889;50.596;8.690;2024-02-21T06:45:53;9.30;99.90
14170;DHT22;63889;50.596;8.690;2024-02-21T06:48:20;9.30;99.90
14170;DHT22;63889;50.596;8.690;2024-02-21T06:50:46;9.40;99.90
14170;DHT22;63889;50.596;8.690;2024-02-21T06:53:11;9.40;99.90
14170;DHT22;63889;50.596;8.690;2024-02-21T06:55:37;9.40;99.90
14170;DHT22;63889;50.596;8.690;2024-02-21T06:58:03;9.50;99.90
14170;DHT22;63889;50.596;8.690;2024-02-21T07:00:29;9.50;99.90
14170;DHT22;63889;50.596;8.690;2024-02-21T07:02:54;9.50;99.90
14170;DHT22;63889;50.596;8.690;2024-02-21T07:05:20;9.60;99.90
14170;DHT22;63889;50.596;8.690;2024-02-21T07:07:46;9.50;99.90
14170;DHT22;63889;50.596;8.690;2024-02-21T07:10:11;9.50;99.90
14170;DHT22;63889;50.596;8.690;2024-02-21T07:12:37;9.50;99.90
14170;DHT22;63889;50.596;8.690;2024-02-21T07:15:08;9.40;99.90
14170;DHT22;63889;50.596;8.690;2024-02-21T07:17:34;9.30;99.90
14170;DHT22;63889;50.596;8.690;2024-02-21T07:19:59;9.30;99.90
14170;DHT22;63889;50.596;8.690;2024-02-21T07:22:26;9.30;99.90
14170;DHT22;63889;50.596;8.690;2024-02-21T07:24:52;9.20;99.90
14170;DHT22;63889;50.596;8.690;2024-02-21T07:27:17;9.20;99.90
14170;DHT22;63889;50.596;8.690;2024-02-21T07:29:43;9.20;99.90
14170;DHT22;63889;50.596;8.690;2024-02-21T07:32:12;9.30;99.90
14170;DHT22;63889;50.596;8.690;2024-02-21T07:34:38;9.30;99.90
14170;DHT22;63889;50.596;8.690;2024-02-21T07:37:03;9.20;99.90
14170;DHT22;63889;50.596;8.690;2024-02-21T07:39:29;9.20;99.90
14170;DHT22;63889;50.596;8.690;2024-02-21T07:41:54;9.30;99.90
14170;DHT22;63889;50.596;8.690;2024-02-21T07:44:20;9.30;99.90
14170;DHT22;63889;50.596;8.690;2024-02-21T07:46:45;9.40;99.90
14170;DHT22;63889;50.596;8.690;2024-02-21T07:49:11;9.40;99.90
14170;DHT22;63889;50.596;8.690;2024-02-21T07:51:36;9.30;99.90
14170;DHT22;63889;50.596;8.690;2024-02-21T07:54:02;9.30;99.90
14170;DHT22;63889;50.596;8.690;2024-02-21T07:56:29;9.40;99.90
14170;DHT22;63889;50.596;8.690;2024-02-21T07:58:56;9.50;99.90
14170;DHT22;63889;50.596;8.690;2024-02-21T08:01:21;9.60;99.90
14170;DHT22;63889;50.596;8.690;2024-02-21T08:03:47;9.50;99.90
14170;DHT22;63889;50.596;8.690;2024-02-21T08:06:13;9.50;99.90
14170;DHT22;63889;50.596;8.690;2024-02-21T08:08:39;9.50;99.90
14170;DHT22;63889;50.596;8.690;2024-02-21T08:11:05;9.60;99.90
14170;DHT22;63889;50.596;8.690;2024-02-21T08:13:31;9.60;99.90
14170;DHT22;63889;50.596;8.690;2024-02-21T08:15:56;9.50;99.90
14170;DHT22;63889;50.596;8.690;2024-02-21T08:18:22;9.50;99.90
14170;DHT22;63889;50.596;8.690;2024-02-21T08:20:48;9.40;99.90
14170;DHT22;63889;50.596;8.690;2024-02-21T08:23:16;9.40;99.90
14170;DHT22;63889;50.596;8.690;2024-02-21T08:25:42;9.40;99.90
14170;DHT22;63889;50.596;8.690;2024-02-21T08:28:07;9.40;99.90
14170;DHT22;63889;50.596;8.690;2024-02-21T08:30:33;9.30;99.90
14170;DHT22;63889;50.596;8.690;2024-02-21T08:32:59;9.20;99.90
14170;DHT22;63889;50.596;8.690;2024-02-21T08:35:25;9.20;99.90
14170;DHT22;63889;50.596;8.690;2024-02-21T08:37:50;9.20;99.90
14170;DHT22;63889;50.596;8.690;2024-02-21T08:40:16;9.30;99.90
14170;DHT22;63889;50.596;8.690;2024-02-21T08:42:44;9.40;99.90
14170;DHT22;63889;50.596;8.690;2024-02-21T08:45:10;9.50;99.90
14170;DHT22;63889;50.596;8.690;2024-02-21T08:47:38;9.60;99.90
14170;DHT22;63889;50.596;8.690;2024-02-21T08:50:04;9.70;99.90
14170;DHT22;63889;50.596;8.690;2024-02-21T08:52:31;9.70;99.90
14170;DHT22;63889;50.596;8.690;2024-02-21T08:54:56;9.70;99.90
14170;DHT22;63889;50.596;8.690;2024-02-21T08:57:22;9.60;99.90
14170;DHT22;63889;50.596;8.690;2024-02-21T08:59:47;9.50;99.90
14170;DHT22;63889;50.596;8.690;2024-02-21T09:02:14;9.50;99.90
14170;DHT22;63889;50.596;8.690;2024-02-21T09:04:41;9.50;99.90
14170;DHT22;63889;50.596;8.690;2024-02-21T09:07:07;9.50;99.90
14170;DHT22;63889;50.596;8.690;2024-02-21T09:09:32;9.50;99.90
14170;DHT22;63889;50.596;8.690;2024-02-21T09:11:58;9.50;99.90
14170;DHT22;63889;50.596;8.690;2024-02-21T09:14:33;9.50;99.90
14170;DHT22;63889;50.596;8.690;2024-02-21T09:16:59;9.60;99.90
14170;DHT22;63889;50.596;8.690;2024-02-21T09:19:25;9.50;99.90
14170;DHT22;63889;50.596;8.690;2024-02-21T09:21:50;9.50;99.90
14170;DHT22;63889;50.596;8.690;2024-02-21T09:24:17;9.50;99.90
14170;DHT22;63889;50.596;8.690;2024-02-21T09:26:42;9.60;99.90
14170;DHT22;63889;50.596;8.690;2024-02-21T09:29:08;9.60;99.90
14170;DHT22;63889;50.596;8.690;2024-02-21T09:31:34;9.60;99.90
14170;DHT22;63889;50.596;8.690;2024-02-21T09:33:59;9.70;99.90
14170;DHT22;63889;50.596;8.690;2024-02-21T09:36:25;9.70;99.90
14170;DHT22;63889;50.596;8.690;2024-02-21T09:38:50;9.60;99.90
14170;DHT22;63889;50.596;8.690;2024-02-21T09:41:25;9.50;99.90
14170;DHT22;63889;50.596;8.690;2024-02-21T09:43:51;9.60;99.90
14170;DHT22;63889;50.596;8.690;2024-02-21T09:46:19;9.70;99.90
14170;DHT22;63889;50.596;8.690;2024-02-21T09:51:33;9.80;99.90
14170;DHT22;63889;50.596;8.690;2024-02-21T09:53:59;9.80;99.90
14170;DHT22;63889;50.596;8.690;2024-02-21T09:56:25;9.80;99.90
14170;DHT22;63889;50.596;8.690;2024-02-21T09:58:51;9.60;99.90
14170;DHT22;63889;50.596;8.690;2024-02-21T10:01:16;9.50;99.90
14170;DHT22;63889;50.596;8.690;2024-02-21T10:03:42;9.50;99.90
14170;DHT22;63889;50.596;8.690;2024-02-21T10:06:09;9.50;99.90
14170;DHT22;63889;50.596;8.690;2024-02-21T10:08:35;9.60;99.90
14170;DHT22;63889;50.596;8.690;2024-02-21T10:11:01;9.60;99.90
14170;DHT22;63889;50.596;8.690;2024-02-21T10:13:29;9.70;99.90
14170;DHT22;63889;50.596;8.690;2024-02-21T10:16:05;9.60;99.90
14170;DHT22;63889;50.596;8.690;2024-02-21T10:18:31;9.60;99.90
14170;DHT22;63889;50.596;8.690;2024-02-21T10:21:03;9.70;99.90
14170;DHT22;63889;50.596;8.690;2024-02-21T10:23:29;9.90;99.90
14170;DHT22;63889;50.596;8.690;2024-02-21T10:26:05;10.00;99.90
14170;DHT22;63889;50.596;8.690;2024-02-21T10:28:31;10.00;99.90
14170;DHT22;63889;50.596;8.690;2024-02-21T10:30:57;9.80;99.90
14170;DHT22;63889;50.596;8.690;2024-02-21T10:33:22;9.80;99.90
14170;DHT22;63889;50.596;8.690;2024-02-21T10:35:49;9.80;99.90
14170;DHT22;63889;50.596;8.690;2024-02-21T10:38:15;10.00;99.90
14170;DHT22;63889;50.596;8.690;2024-02-21T10:40:40;10.10;99.90
14170;DHT22;63889;50.596;8.690;2024-02-21T10:43:12;10.20;99.90
14170;DHT22;63889;50.596;8.690;2024-02-21T10:45:39;10.40;99.90
14170;DHT22;63889;50.596;8.690;2024-02-21T10:48:14;10.50;99.90
14170;DHT22;63889;50.596;8.690;2024-02-21T10:51:20;10.50;99.90
14170;DHT22;63889;50.596;8.690;2024-02-21T10:54:06;10.60;99.90
14170;DHT22;63889;50.596;8.690;2024-02-21T10:56:35;10.70;99.90
14170;DHT22;63889;50.596;8.690;2024-02-21T10:59:07;10.70;99.90
14170;DHT22;63889;50.596;8.690;2024-02-21T11:01:33;10.80;99.90
14170;DHT22;63889;50.596;8.690;2024-02-21T11:04:05;10.90;99.90
14170;DHT22;63889;50.596;8.690;2024-02-21T11:06:35;10.90;99.90
14170;DHT22;63889;50.596;8.690;2024-02-21T11:09:05;10.90;99.90
14170;DHT22;63889;50.596;8.690;2024-02-21T11:11:38;11.00;99.90
14170;DHT22;63889;50.596;8.690;2024-02-21T11:14:11;11.20;99.90
14170;DHT22;63889;50.596;8.690;2024-02-21T11:16:42;11.30;99.90
14170;DHT22;63889;50.596;8.690;2024-02-21T11:21:43;11.50;99.90
14170;DHT22;63889;50.596;8.690;2024-02-21T11:24:09;11.40;99.90
14170;DHT22;63889;50.596;8.690;2024-02-21T11:26:37;11.40;99.90
14170;DHT22;63889;50.596;8.690;2024-02-21T11:29:03;11.50;99.90
14170;DHT22;63889;50.596;8.690;2024-02-21T11:31:41;11.50;99.90
14170;DHT22;63889;50.596;8.690;2024-02-21T11:34:10;11.60;99.90
14170;DHT22;63889;50.596;8.690;2024-02-21T11:36:45;11.60;99.90
14170;DHT22;63889;50.596;8.690;2024-02-21T11:39:11;11.70;99.90
14170;DHT22;63889;50.596;8.690;2024-02-21T11:41:37;11.70;99.90
14170;DHT22;63889;50.596;8.690;2024-02-21T11:44:02;11.70;99.90
14170;DHT22;63889;50.596;8.690;2024-02-21T11:46:29;11.60;99.90
14170;DHT22;63889;50.596;8.690;2024-02-21T11:48:55;11.50;99.90
14170;DHT22;63889;50.596;8.690;2024-02-21T11:51:27;11.60;99.90
14170;DHT22;63889;50.596;8.690;2024-02-21T11:53:53;11.70;99.90
14170;DHT22;63889;50.596;8.690;2024-02-21T11:56:19;11.80;99.90
14170;DHT22;63889;50.596;8.690;2024-02-21T11:58:46;11.80;99.90
14170;DHT22;63889;50.596;8.690;2024-02-21T12:01:13;11.80;99.90
14170;DHT22;63889;50.596;8.690;2024-02-21T12:03:39;11.80;99.90
14170;DHT22;63889;50.596;8.690;2024-02-21T12:06:06;11.80;99.90
14170;DHT22;63889;50.596;8.690;2024-02-21T12:08:45;11.90;99.90
14170;DHT22;63889;50.596;8.690;2024-02-21T12:11:24;11.90;99.90
14170;DHT22;63889;50.596;8.690;2024-02-21T12:14:03;11.80;99.90
14170;DHT22;63889;50.596;8.690;2024-02-21T12:16:31;11.70;99.90
14170;DHT22;63889;50.596;8.690;2024-02-21T12:18:58;11.60;99.90
14170;DHT22;63889;50.596;8.690;2024-02-21T12:21:31;11.50;99.90
14170;DHT22;63889;50.596;8.690;2024-02-21T12:23:58;11.50;99.90
14170;DHT22;63889;50.596;8.690;2024-02-21T12:26:25;11.70;99.90
14170;DHT22;63889;50.596;8.690;2024-02-21T12:28:51;11.90;99.90
14170;DHT22;63889;50.596;8.690;2024-02-21T12:31:16;11.90;99.90
14170;DHT22;63889;50.596;8.690;2024-02-21T12:33:45;12.10;99.90
14170;DHT22;63889;50.596;8.690;2024-02-21T12:36:10;12.20;99.90
14170;DHT22;63889;50.596;8.690;2024-02-21T12:38:36;12.30;99.90
14170;DHT22;63889;50.596;8.690;2024-02-21T12:41:02;12.30;99.90
14170;DHT22;63889;50.596;8.690;2024-02-21T12:43:28;12.40;99.90
14170;DHT22;63889;50.596;8.690;2024-02-21T12:45:54;12.50;99.90
14170;DHT22;63889;50.596;8.690;2024-02-21T12:48:19;12.50;99.90
14170;DHT22;63889;50.596;8.690;2024-02-21T12:50:50;12.50;99.90
14170;DHT22;63889;50.596;8.690;2024-02-21T12:53:17;12.50;99.90
14170;DHT22;63889;50.596;8.690;2024-02-21T12:55:45;12.40;99.90
14170;DHT22;63889;50.596;8.690;2024-02-21T12:58:10;12.40;99.90
14170;DHT22;63889;50.596;8.690;2024-02-21T13:00:36;12.50;99.90
14170;DHT22;63889;50.596;8.690;2024-02-21T13:03:03;12.50;99.90
14170;DHT22;63889;50.596;8.690;2024-02-21T13:05:29;12.40;99.90
14170;DHT22;63889;50.596;8.690;2024-02-21T13:07:54;12.30;99.90
14170;DHT22;63889;50.596;8.690;2024-02-21T13:10:20;12.20;99.90
14170;DHT22;63889;50.596;8.690;2024-02-21T13:12:47;12.20;99.90
14170;DHT22;63889;50.596;8.690;2024-02-21T13:15:12;12.00;99.90
14170;DHT22;63889;50.596;8.690;2024-02-21T13:17:38;12.00;99.90
14170;DHT22;63889;50.596;8.690;2024-02-21T13:20:04;12.00;99.90
14170;DHT22;63889;50.596;8.690;2024-02-21T13:22:30;12.00;99.90
14170;DHT22;63889;50.596;8.690;2024-02-21T13:24:55;12.00;99.90
14170;DHT22;63889;50.596;8.690;2024-02-21T13:27:21;11.90;99.90
14170;DHT22;63889;50.596;8.690;2024-02-21T13:29:46;12.00;99.90
14170;DHT22;63889;50.596;8.690;2024-02-21T13:32:12;12.00;99.90
14170;DHT22;63889;50.596;8.690;2024-02-21T13:34:37;12.00;99.90
14170;DHT22;63889;50.596;8.690;2024-02-21T13:37:03;12.00;99.90
14170;DHT22;63889;50.596;8.690;2024-02-21T13:39:30;12.00;99.90
14170;DHT22;63889;50.596;8.690;2024-02-21T13:41:55;11.90;99.90
14170;DHT22;63889;50.596;8.690;2024-02-21T13:44:21;11.90;99.90
14170;DHT22;63889;50.596;8.690;2024-02-21T13:46:46;11.90;99.90
14170;DHT22;63889;50.596;8.690;2024-02-21T13:49:12;12.00;99.90
14170;DHT22;63889;50.596;8.690;2024-02-21T13:51:37;12.00;99.90
14170;DHT22;63889;50.596;8.690;2024-02-21T13:54:04;12.00;99.90
14170;DHT22;63889;50.596;8.690;2024-02-21T13:56:30;12.00;99.90
14170;DHT22;63889;50.596;8.690;2024-02-21T13:58:57;12.10;99.90
14170;DHT22;63889;50.596;8.690;2024-02-21T14:01:22;12.20;99.90
14170;DHT22;63889;50.596;8.690;2024-02-21T14:03:48;12.20;99.90
14170;DHT22;63889;50.596;8.690;2024-02-21T14:06:14;12.20;99.90
14170;DHT22;63889;50.596;8.690;2024-02-21T14:08:39;12.30;99.90
14170;DHT22;63889;50.596;8.690;2024-02-21T14:11:08;12.30;99.90
14170;DHT22;63889;50.596;8.690;2024-02-21T14:13:33;12.30;99.90
14170;DHT22;63889;50.596;8.690;2024-02-21T14:15:59;12.30;99.90
14170;DHT22;63889;50.596;8.690;2024-02-21T14:18:24;12.20;99.90
14170;DHT22;63889;50.596;8.690;2024-02-21T14:20:50;11.70;99.90
14170;DHT22;63889;50.596;8.690;2024-02-21T14:23:16;11.50;99.90
14170;DHT22;63889;50.596;8.690;2024-02-21T14:25:41;11.40;99.90
14170;DHT22;63889;50.596;8.690;2024-02-21T14:28:08;11.50;99.90
14170;DHT22;63889;50.596;8.690;2024-02-21T14:30:35;11.50;99.90
14170;DHT22;63889;50.596;8.690;2024-02-21T14:33:00;11.50;99.90
14170;DHT22;63889;50.596;8.690;2024-02-21T14:35:26;11.50;99.90
14170;DHT22;63889;50.596;8.690;2024-02-21T14:37:52;11.40;99.90
14170;DHT22;63889;50.596;8.690;2024-02-21T14:40:18;11.10;99.90
14170;DHT22;63889;50.596;8.690;2024-02-21T14:42:45;11.10;99.90
14170;DHT22;63889;50.596;8.690;2024-02-21T14:45:11;11.20;99.90
14170;DHT22;63889;50.596;8.690;2024-02-21T14:47:37;11.30;99.90
14170;DHT22;63889;50.596;8.690;2024-02-21T14:50:03;11.50;99.90
14170;DHT22;63889;50.596;8.690;2024-02-21T14:52:30;11.60;99.90
14170;DHT22;63889;50.596;8.690;2024-02-21T14:54:56;11.50;99.90
14170;DHT22;63889;50.596;8.690;2024-02-21T14:57:22;11.40;99.90
14170;DHT22;63889;50.596;8.690;2024-02-21T14:59:48;11.30;99.90
14170;DHT22;63889;50.596;8.690;2024-02-21T15:02:15;11.20;99.90
14170;DHT22;63889;50.596;8.690;2024-02-21T15:04:41;11.20;99.90
14170;DHT22;63889;50.596;8.690;2024-02-21T15:07:06;11.20;99.90
14170;DHT22;63889;50.596;8.690;2024-02-21T15:09:32;11.10;99.90
14170;DHT22;63889;50.596;8.690;2024-02-21T15:11:58;11.20;99.90
14170;DHT22;63889;50.596;8.690;2024-02-21T15:14:24;10.90;99.90
14170;DHT22;63889;50.596;8.690;2024-02-21T15:16:49;11.10;99.90
14170;DHT22;63889;50.596;8.690;2024-02-21T15:19:15;11.10;99.90
14170;DHT22;63889;50.596;8.690;2024-02-21T15:21:40;11.10;99.90
14170;DHT22;63889;50.596;8.690;2024-02-21T15:24:06;11.00;99.90
14170;DHT22;63889;50.596;8.690;2024-02-21T15:26:31;11.10;99.90
14170;DHT22;63889;50.596;8.690;2024-02-21T15:28:57;11.10;99.90
14170;DHT22;63889;50.596;8.690;2024-02-21T15:31:23;11.00;99.90
14170;DHT22;63889;50.596;8.690;2024-02-21T15:33:50;11.00;99.90
14170;DHT22;63889;50.596;8.690;2024-02-21T15:36:16;10.90;99.90
14170;DHT22;63889;50.596;8.690;2024-02-21T15:38:41;10.80;99.90
14170;DHT22;63889;50.596;8.690;2024-02-21T15:41:07;11.00;99.90